Hawick, United Kingdom
Current Conditions -  °F | °C
As of 5:50 AM on Thursday 29 Jan 2015 (Local Time) from EGOM Reporting Station
Light Snow Light Snow  
Wind Chill: 19°   Ceiling: 200
Heat Index: 30°   Visibility: 2.2mi
Dew Point: 30°   Wind: 16mph
Humidity: 100%   Direction: 270°W
Pressure: 28.88"   Gusts: NA
Location:  55.42°N, 2.79°W
Report Text: EGOM 290550Z AUTO 27014KT 3600 -SN BKN002/// M01/M01 Q0978
Loading
Personal Weather Stations






























Interactive Weather Map New forecast layout! Learn more

10-Day Weather Forecast

Advertisements
Track Severe Weather on mobile